Flight Track Log - Related Links

Times and Time Zones

All times are in EDT time to prevent confusion due to time zone crossing. See the N641BB flight status page for this flight to view local times or setup timezone preferences in your user account.

Time Position Orientation Groundspeed Altitude Reporting Facility
EDT Latitude Longitude Course Direction KTS MPH feet Rate Location/Type
Wed 07:35:37 PM 35.8281 -83.9772 355° North 98 113 1,600  Level Indianapolis Center
Wed 07:36:39 PM 35.8567 -83.9900 340° North 116 133 2,100 439 Climbing Indianapolis Center
Wed 07:37:40 PM 35.8861 -83.9936 354° North 110 127 2,500 390 Climbing Indianapolis Center
Wed 07:38:42 PM 35.9169 -83.9986 353° North 109 125 2,900 387 Climbing Indianapolis Center
Wed 07:39:44 PM 35.9464 -84.0067 348° North 109 125 3,300 484 Climbing Indianapolis Center
Wed 07:40:46 PM 35.9833 -84.0128 352° North 111 128 3,900 581 Climbing Indianapolis Center
Wed 07:41:00 PM 36.0565 -84.0044 355° North  Level FlightAware Approximate
Wed 07:41:48 PM 36.0119 -84.0192 350° North 107 123 4,500  Level Indianapolis Center
Wed 07:42:50 PM 36.0419 -84.0239 353° North 108 124 5,000 293 Climbing Indianapolis Center
Wed 07:43:51 PM 36.0761 -84.0258 357° North 117 135 5,100 49 Climbing Indianapolis Center
Wed 07:44:53 PM 36.1133 -84.0256 360° North 128 147 5,100 144 Level Indianapolis Center
Wed 07:45:56 PM 36.1481 -84.0311 353° North 141 162 5,400 339 Climbing Atlanta Center
Wed 07:46:57 PM 36.1817 -84.0317 359° North 122 140 5,800 293 Climbing Indianapolis Center
Wed 07:47:59 PM 36.2261 -84.0356 356° North 129 148 6,000 146 Climbing Indianapolis Center
Wed 07:49:00 PM 36.2650 -84.0372 358° North 136 157 6,100  Climbing Indianapolis Center
Wed 07:50:02 PM 36.3053 -84.0400 357° North 142 163 6,000 -48 Descending Indianapolis Center
Wed 07:51:04 PM 36.3456 -84.0433 356° North 145 167 6,000  Level Indianapolis Center
Wed 07:52:06 PM 36.3844 -84.0469 356° North 142 163 6,000  Level Indianapolis Center
Wed 07:53:08 PM 36.4244 -84.0500 356° North 143 165 6,000  Level Indianapolis Center
Wed 07:54:09 PM 36.4625 -84.0553 354° North 141 162 6,000  Level Indianapolis Center
Wed 07:55:11 PM 36.5072 -84.0583 357° North 135 155 6,000  Level Indianapolis Center
Wed 07:56:13 PM 36.5439 -84.0617 356° North 136 157 6,000  Level Indianapolis Center
Wed 07:57:15 PM 36.5808 -84.0653 356° North 134 154 6,000  Level Indianapolis Center
Wed 07:58:17 PM 36.6172 -84.0681 356° North 133 153 6,000  Level Indianapolis Center
Wed 07:59:19 PM 36.6531 -84.0708 356° North 131 151 6,000  Level Indianapolis Center
Wed 08:00:20 PM 36.6944 -84.0647 North 138 159 6,000  Level Indianapolis Center
Wed 08:01:22 PM 36.7122 -84.0278 59° Northeast 128 147 6,000  Level Indianapolis Center
Wed 08:02:24 PM 36.7350 -83.9933 50° Northeast 129 148 6,000  Level Indianapolis Center
Wed 08:03:27 PM 36.7567 -83.9569 53° Northeast 130 150 6,000  Level Indianapolis Center
Wed 08:04:29 PM 36.7767 -83.9200 56° Northeast 129 148 6,000  Level Indianapolis Center
Wed 08:05:30 PM 36.8025 -83.8781 52° Northeast 130 150 6,000  Level Indianapolis Center
Wed 08:06:32 PM 36.8239 -83.8419 53° Northeast 130 150 6,000  Level Indianapolis Center
Wed 08:07:34 PM 36.8453 -83.8050 54° Northeast 131 151 6,000  Level Indianapolis Center
Wed 08:08:36 PM 36.8669 -83.7681 54° Northeast 131 151 6,000  Level Indianapolis Center
Wed 08:09:37 PM 36.8886 -83.7311 54° Northeast 132 152 6,000  Level Indianapolis Center
Wed 08:10:39 PM 36.9103 -83.6936 54° Northeast 131 151 6,000  Level Indianapolis Center
Wed 08:11:41 PM 36.9322 -83.6564 54° Northeast 133 153 6,000  Level Indianapolis Center
Wed 08:12:43 PM 36.9569 -83.6131 54° Northeast 132 152 6,000  Level Indianapolis Center
Wed 08:13:44 PM 36.9789 -83.5767 53° Northeast 132 152 6,000  Level Indianapolis Center
Wed 08:14:46 PM 36.9994 -83.5397 55° Northeast 130 150 6,000  Level Indianapolis Center
Wed 08:15:48 PM 37.0211 -83.5042 53° Northeast 129 148 6,000  Level Indianapolis Center
Wed 08:16:50 PM 37.0414 -83.4681 55° Northeast 128 147 6,000  Level Indianapolis Center
Wed 08:17:52 PM 37.0636 -83.4319 52° Northeast 129 148 6,000  Level Indianapolis Center
Wed 08:18:53 PM 37.0881 -83.3889 55° Northeast 130 150 6,000  Level Indianapolis Center
Wed 08:19:55 PM 37.1094 -83.3522 54° Northeast 129 148 6,000  Level Indianapolis Center
Wed 08:20:57 PM 37.1300 -83.3153 55° Northeast 129 148 6,000  Level Indianapolis Center
Wed 08:21:59 PM 37.1514 -83.2783 54° Northeast 130 150 6,000 -97 Level Indianapolis Center
Wed 08:23:01 PM 37.1736 -83.2419 53° Northeast 130 150 5,800 -259 Descending Indianapolis Center
Wed 08:25:04 PM 37.2200 -83.1600 55° Northeast 141 162 5,200 -324 Descending Indianapolis Center
Wed 08:26:06 PM 37.2467 -83.1136 54° Northeast 141 162 4,800 -339 Descending Indianapolis Center
Wed 08:27:08 PM 37.2697 -83.0733 54° Northeast 142 163 4,500 -145 Descending Indianapolis Center
Wed 08:28:10 PM 37.2928 -83.0353 53° Northeast 140 161 4,500  Level Indianapolis Center
Wed 08:29:12 PM 37.3131 -82.9992 55° Northeast 133 153 4,500  Level Indianapolis Center
Wed 08:30:14 PM 37.3344 -82.9636 53° Northeast 129 148 4,500  Level Indianapolis Center
Wed 08:31:15 PM 37.3542 -82.9275 56° Northeast 127 146 4,500  Level Indianapolis Center
Wed 08:32:17 PM 37.3786 -82.8853 54° Northeast 127 146 4,500  Level Indianapolis Center
Wed 08:33:19 PM 37.3989 -82.8497 54° Northeast 127 146 4,500  Level Indianapolis Center
Wed 08:34:21 PM 37.4189 -82.8147 54° Northeast 124 143 4,500  Level Indianapolis Center
Wed 08:35:23 PM 37.4400 -82.7797 53° Northeast 125 144 4,500  Level Indianapolis Center
Wed 08:36:25 PM 37.4586 -82.7439 57° Northeast 123 142 4,500  Level Indianapolis Center

Login

Don't have an account? Register now (free) for customized features, flight alerts, and more!